createdAt,value
2023-04-27T00:00:49.326Z,10.57
2023-04-27T00:03:16.662Z,8.55
2023-04-27T00:05:43.898Z,9.27
2023-04-27T00:08:11.024Z,10.70
2023-04-27T00:10:37.953Z,10.15
2023-04-27T00:13:04.840Z,8.80
2023-04-27T00:15:31.807Z,12.30
2023-04-27T00:17:58.828Z,10.65
2023-04-27T00:20:25.772Z,10.70
2023-04-27T00:22:52.691Z,10.35
2023-04-27T00:25:19.622Z,11.57
2023-04-27T00:27:46.470Z,11.65
2023-04-27T00:30:13.477Z,8.88
2023-04-27T00:32:40.461Z,10.93
2023-04-27T00:35:07.831Z,9.82
2023-04-27T00:37:34.689Z,12.95
2023-04-27T00:40:01.662Z,11.20
2023-04-27T00:42:28.565Z,9.20
2023-04-27T00:44:58.066Z,12.07
2023-04-27T00:47:25.598Z,10.18
2023-04-27T00:49:53.295Z,9.43
2023-04-27T00:52:20.203Z,7.57
2023-04-27T00:54:50.778Z,12.00
2023-04-27T00:57:18.167Z,12.57
2023-04-27T00:59:45.050Z,11.60
2023-04-27T01:02:12.470Z,11.88
2023-04-27T01:04:39.602Z,11.00
2023-04-27T01:07:06.513Z,10.63
2023-04-27T01:09:33.394Z,14.25
2023-04-27T01:12:00.258Z,8.70
2023-04-27T01:14:27.163Z,8.65
2023-04-27T01:16:54.103Z,9.18
2023-04-27T01:19:21.303Z,13.18
2023-04-27T01:21:48.187Z,10.15
2023-04-27T01:24:15.073Z,12.95
2023-04-27T01:26:41.940Z,11.43
2023-04-27T01:29:08.810Z,10.23
2023-04-27T01:31:35.828Z,10.88
2023-04-27T01:34:02.753Z,13.27
2023-04-27T01:36:29.669Z,10.52
2023-04-27T01:38:56.516Z,9.25
2023-04-27T01:41:23.386Z,12.05
2023-04-27T01:43:50.267Z,12.20
2023-04-27T01:46:17.194Z,9.73
2023-04-27T01:48:44.092Z,8.57
2023-04-27T01:51:10.975Z,8.82
2023-04-27T01:53:37.897Z,8.60
2023-04-27T01:56:05.053Z,12.57
2023-04-27T01:58:32.007Z,14.30
2023-04-27T02:00:58.924Z,14.13
2023-04-27T02:03:25.995Z,9.70
2023-04-27T02:05:53.122Z,11.38
2023-04-27T02:08:20.098Z,10.35
2023-04-27T02:10:46.974Z,13.00
2023-04-27T02:13:13.826Z,11.57
2023-04-27T02:15:40.745Z,13.90
2023-04-27T02:18:07.813Z,10.77
2023-04-27T02:20:34.732Z,10.48
2023-04-27T02:23:01.669Z,13.90
2023-04-27T02:25:28.567Z,10.70
2023-04-27T02:27:55.950Z,11.82
2023-04-27T02:30:23.503Z,10.32
2023-04-27T02:32:50.885Z,12.10
2023-04-27T02:35:17.869Z,13.05
2023-04-27T02:37:44.791Z,13.30
2023-04-27T02:40:12.030Z,13.25
2023-04-27T02:42:39.111Z,10.27
2023-04-27T02:45:09.374Z,11.55
2023-04-27T02:47:36.346Z,12.43
2023-04-27T02:50:03.382Z,14.25
2023-04-27T02:52:30.245Z,12.20
2023-04-27T02:54:57.147Z,12.50
2023-04-27T02:57:24.062Z,13.90
2023-04-27T02:59:50.955Z,10.82
2023-04-27T03:02:17.922Z,11.20
2023-04-27T03:04:45.029Z,12.07
2023-04-27T03:07:11.958Z,16.37
2023-04-27T03:09:38.893Z,17.58
2023-04-27T03:12:05.879Z,17.33
2023-04-27T03:14:32.746Z,14.55
2023-04-27T03:17:00.307Z,17.33
2023-04-27T03:19:27.135Z,11.80
2023-04-27T03:21:53.997Z,36.95
2023-04-27T03:24:20.915Z,17.95
2023-04-27T03:26:47.817Z,13.80
2023-04-27T03:29:14.899Z,14.32
2023-04-27T03:31:42.094Z,16.35
2023-04-27T03:34:09.021Z,15.00
2023-04-27T03:36:35.910Z,18.83
2023-04-27T03:39:02.825Z,15.27
2023-04-27T03:41:29.703Z,14.65
2023-04-27T03:43:56.599Z,18.13
2023-04-27T03:46:23.524Z,11.57
2023-04-27T03:48:50.363Z,16.88
2023-04-27T03:51:17.331Z,16.33
2023-04-27T03:53:44.238Z,12.90
2023-04-27T03:56:11.317Z,17.58
2023-04-27T03:58:38.307Z,22.30
2023-04-27T04:01:05.316Z,15.73
2023-04-27T04:03:32.320Z,15.52
2023-04-27T04:05:59.327Z,16.58
2023-04-27T04:08:26.244Z,13.45
2023-04-27T04:10:53.088Z,14.80
2023-04-27T04:13:20.026Z,16.50
2023-04-27T04:15:46.941Z,16.42
2023-04-27T04:18:13.874Z,14.90
2023-04-27T04:20:40.818Z,15.00
2023-04-27T04:23:07.664Z,13.88
2023-04-27T04:25:34.597Z,15.20
2023-04-27T04:28:01.543Z,15.85
2023-04-27T04:30:28.451Z,13.48
2023-04-27T04:32:55.380Z,14.15
2023-04-27T04:35:22.328Z,15.47
2023-04-27T04:37:49.200Z,17.10
2023-04-27T04:40:16.057Z,17.02
2023-04-27T04:42:42.903Z,18.98
2023-04-27T04:45:10.210Z,16.88
2023-04-27T04:47:37.123Z,17.60
2023-04-27T04:50:04.272Z,18.92
2023-04-27T04:52:31.155Z,25.05
2023-04-27T04:54:58.106Z,15.95
2023-04-27T04:57:25.015Z,16.38
2023-04-27T04:59:51.857Z,17.83
2023-04-27T05:02:18.826Z,14.43
2023-04-27T05:04:45.978Z,19.38
2023-04-27T05:07:14.904Z,15.27
2023-04-27T05:09:42.512Z,16.42
2023-04-27T05:12:09.599Z,19.15
2023-04-27T05:14:36.534Z,16.42
2023-04-27T05:17:03.472Z,16.03
2023-04-27T05:19:31.097Z,14.85
2023-04-27T05:21:58.865Z,17.17
2023-04-27T05:24:26.529Z,16.17
2023-04-27T05:26:54.021Z,15.57
2023-04-27T05:29:21.934Z,14.00
2023-04-27T05:31:48.907Z,15.27
2023-04-27T05:34:15.979Z,18.65
2023-04-27T05:36:42.881Z,15.30
2023-04-27T05:39:09.754Z,17.90
2023-04-27T05:41:36.611Z,16.20
2023-04-27T05:44:03.501Z,17.98
2023-04-27T05:46:30.466Z,15.83
2023-04-27T05:48:57.400Z,13.18
2023-04-27T05:51:24.218Z,17.02
2023-04-27T05:53:51.139Z,13.93
2023-04-27T05:56:18.019Z,15.27
2023-04-27T05:58:44.980Z,16.43
2023-04-27T06:01:11.828Z,12.85
2023-04-27T06:03:38.874Z,13.38
2023-04-27T06:06:06.188Z,13.98
2023-04-27T06:08:33.075Z,14.50
2023-04-27T06:10:59.979Z,13.75
2023-04-27T06:13:26.835Z,14.27
2023-04-27T06:15:53.746Z,13.50
2023-04-27T06:18:20.603Z,15.10
2023-04-27T06:20:47.511Z,15.63
2023-04-27T06:23:14.460Z,12.52
2023-04-27T06:25:41.323Z,15.88
2023-04-27T06:28:08.193Z,10.52
2023-04-27T06:30:35.757Z,12.90
2023-04-27T06:33:03.940Z,10.15
2023-04-27T06:35:30.903Z,14.00
2023-04-27T06:37:57.743Z,11.55
2023-04-27T06:40:25.742Z,11.95
2023-04-27T06:42:53.193Z,11.43
2023-04-27T06:45:20.177Z,11.82
2023-04-27T06:47:47.100Z,9.90
2023-04-27T06:50:14.758Z,9.47
2023-04-27T06:52:41.633Z,10.80
2023-04-27T06:55:08.871Z,9.73
2023-04-27T06:57:35.744Z,8.55
2023-04-27T07:00:03.490Z,9.23
2023-04-27T07:02:30.644Z,12.43
2023-04-27T07:04:57.704Z,9.57
2023-04-27T07:07:24.672Z,10.20
2023-04-27T07:09:51.542Z,9.35
2023-04-27T07:12:29.874Z,8.70
2023-04-27T07:14:56.789Z,9.60
2023-04-27T07:17:23.737Z,8.27
2023-04-27T07:19:50.649Z,9.10
2023-04-27T07:22:17.542Z,10.05
2023-04-27T07:24:44.407Z,7.80
2023-04-27T07:27:11.221Z,8.35
2023-04-27T07:29:38.121Z,8.90
2023-04-27T07:32:08.930Z,10.25
2023-04-27T07:34:48.999Z,11.32
2023-04-27T07:37:19.360Z,9.45
2023-04-27T07:39:46.307Z,7.68
2023-04-27T07:42:13.165Z,7.55
2023-04-27T07:44:40.064Z,10.53
2023-04-27T07:47:06.896Z,9.98
2023-04-27T07:49:33.825Z,9.50
2023-04-27T07:52:00.808Z,7.85
2023-04-27T07:54:27.949Z,8.27
2023-04-27T07:56:54.999Z,9.03
2023-04-27T07:59:21.958Z,7.80
2023-04-27T08:01:49.044Z,8.25
2023-04-27T08:04:16.318Z,6.75
2023-04-27T08:06:44.247Z,6.60
2023-04-27T08:09:11.714Z,7.32
2023-04-27T08:11:38.773Z,7.95
2023-04-27T08:14:05.663Z,7.18
2023-04-27T08:16:32.580Z,6.93
2023-04-27T08:19:00.712Z,7.60
2023-04-27T08:21:27.768Z,9.93
2023-04-27T08:23:54.750Z,9.95
2023-04-27T08:26:22.139Z,7.43
2023-04-27T08:28:50.258Z,7.68
2023-04-27T08:31:17.205Z,7.63
2023-04-27T08:33:44.125Z,7.18
2023-04-27T08:36:10.998Z,6.85
2023-04-27T08:38:37.819Z,8.67
2023-04-27T08:41:20.323Z,7.03
2023-04-27T08:43:49.435Z,7.60
2023-04-27T08:46:24.428Z,7.03
2023-04-27T08:48:52.426Z,7.40
2023-04-27T08:51:20.047Z,7.72
2023-04-27T08:53:58.252Z,6.70
2023-04-27T08:56:27.128Z,6.72
2023-04-27T08:58:57.808Z,6.97
2023-04-27T09:01:25.558Z,9.47
2023-04-27T09:04:00.457Z,6.60
2023-04-27T09:06:35.772Z,5.95
2023-04-27T09:09:03.762Z,6.15
2023-04-27T09:11:31.716Z,8.02
2023-04-27T09:14:00.235Z,5.80
2023-04-27T09:16:28.577Z,5.15
2023-04-27T09:18:56.841Z,10.50
2023-04-27T09:21:30.582Z,5.78
2023-04-27T09:23:57.684Z,8.25
2023-04-27T09:26:28.087Z,6.82
2023-04-27T09:28:56.222Z,10.30
2023-04-27T09:31:31.099Z,7.50
2023-04-27T09:33:57.979Z,7.97
2023-04-27T09:36:25.962Z,7.22
2023-04-27T09:38:53.687Z,7.60
2023-04-27T09:41:20.678Z,6.65
2023-04-27T09:43:47.663Z,4.25
2023-04-27T09:46:15.053Z,6.30
2023-04-27T09:48:42.456Z,6.18
2023-04-27T09:51:09.476Z,5.93
2023-04-27T09:53:38.780Z,6.47
2023-04-27T09:56:33.727Z,8.48
2023-04-27T09:59:35.600Z,6.55
2023-04-27T10:02:13.332Z,6.72
2023-04-27T10:05:17.637Z,7.50
2023-04-27T10:07:45.801Z,7.85
2023-04-27T10:10:19.155Z,7.25
2023-04-27T10:13:02.471Z,6.55
2023-04-27T10:15:29.811Z,7.13
2023-04-27T10:18:03.437Z,6.18
2023-04-27T10:20:32.805Z,5.47
2023-04-27T10:23:00.123Z,6.53
2023-04-27T10:25:29.436Z,5.10
2023-04-27T10:28:04.083Z,5.70
2023-04-27T10:30:38.773Z,7.88
2023-04-27T10:33:08.461Z,6.70
2023-04-27T10:35:36.340Z,6.25
2023-04-27T10:38:10.649Z,5.40
2023-04-27T10:40:38.571Z,6.37
2023-04-27T10:43:13.357Z,6.97
2023-04-27T10:45:41.425Z,8.05
2023-04-27T10:48:09.033Z,8.50
2023-04-27T10:50:36.024Z,6.78
2023-04-27T10:53:05.414Z,7.70
2023-04-27T10:55:32.743Z,6.43
2023-04-27T10:57:59.828Z,6.72
2023-04-27T11:00:35.078Z,6.13
2023-04-27T11:03:20.008Z,6.50
2023-04-27T11:05:48.269Z,6.95
2023-04-27T11:08:19.433Z,5.85
2023-04-27T11:10:48.349Z,6.53
2023-04-27T11:13:17.215Z,8.80
2023-04-27T11:15:53.210Z,7.05
2023-04-27T11:18:21.440Z,9.27
2023-04-27T11:21:05.832Z,6.80
2023-04-27T11:23:32.993Z,7.57
2023-04-27T11:26:18.426Z,6.45
2023-04-27T11:28:58.057Z,5.40
2023-04-27T11:31:25.792Z,6.28
2023-04-27T11:33:53.705Z,8.60
2023-04-27T11:36:23.023Z,7.32
2023-04-27T11:38:49.972Z,7.75
2023-04-27T11:41:16.871Z,6.63
2023-04-27T11:43:44.889Z,8.10
2023-04-27T11:46:11.832Z,8.70
2023-04-27T11:48:39.538Z,7.53
2023-04-27T11:51:07.706Z,8.90
2023-04-27T11:53:37.031Z,6.68
2023-04-27T11:56:06.407Z,8.18
2023-04-27T11:58:34.630Z,6.78
2023-04-27T12:01:01.675Z,5.20
2023-04-27T12:03:29.322Z,6.07
2023-04-27T12:05:59.886Z,7.50
2023-04-27T12:08:34.415Z,8.00
2023-04-27T12:11:01.270Z,7.43
2023-04-27T12:13:28.143Z,7.20
2023-04-27T12:15:55.047Z,7.97
2023-04-27T12:18:21.939Z,7.13
2023-04-27T12:20:48.837Z,7.38
2023-04-27T12:23:15.726Z,6.05
2023-04-27T12:25:42.728Z,8.07
2023-04-27T12:28:09.781Z,7.70
2023-04-27T12:30:36.678Z,6.57
2023-04-27T12:33:03.696Z,7.60
2023-04-27T12:35:30.727Z,6.78
2023-04-27T12:37:57.590Z,8.13
2023-04-27T12:40:24.442Z,7.60
2023-04-27T12:42:51.290Z,6.60
2023-04-27T12:45:18.193Z,6.97
2023-04-27T12:48:01.118Z,7.78
2023-04-27T12:50:31.667Z,6.15
2023-04-27T12:52:58.633Z,6.20
2023-04-27T12:57:58.222Z,7.18
2023-04-27T13:00:25.329Z,6.82
2023-04-27T13:02:52.963Z,7.15
2023-04-27T13:05:20.648Z,7.55
2023-04-27T13:07:47.532Z,10.90
2023-04-27T13:10:14.400Z,5.50
2023-04-27T13:12:41.413Z,5.68
2023-04-27T13:15:09.127Z,6.05
2023-04-27T13:17:36.177Z,7.03
2023-04-27T13:20:03.386Z,4.88
2023-04-27T13:22:30.357Z,9.07
2023-04-27T13:24:57.309Z,7.60
2023-04-27T13:27:24.244Z,8.15
2023-04-27T13:29:51.368Z,5.80
2023-04-27T13:32:18.277Z,6.20
2023-04-27T13:34:45.333Z,8.27
2023-04-27T13:37:12.401Z,6.50
2023-04-27T13:39:39.278Z,6.60
2023-04-27T13:42:06.245Z,5.18
2023-04-27T13:44:33.156Z,5.65
2023-04-27T13:47:00.120Z,5.57
2023-04-27T13:49:27.018Z,8.80
2023-04-27T13:51:53.909Z,8.23
2023-04-27T13:54:21.075Z,7.07
2023-04-27T13:56:48.084Z,9.93
2023-04-27T13:59:15.222Z,8.57
2023-04-27T14:01:42.417Z,7.90
2023-04-27T14:04:12.228Z,9.45
2023-04-27T14:06:39.382Z,7.10
2023-04-27T14:09:06.236Z,6.55
2023-04-27T14:11:42.073Z,5.30
2023-04-27T14:14:15.658Z,6.22
2023-04-27T14:16:42.601Z,7.63
2023-04-27T14:19:09.506Z,6.07
2023-04-27T14:21:36.396Z,7.80
2023-04-27T14:24:03.350Z,8.10
2023-04-27T14:26:30.217Z,7.38
2023-04-27T14:28:58.667Z,8.87
2023-04-27T14:31:25.786Z,10.25
2023-04-27T14:33:52.721Z,7.50
2023-04-27T14:36:19.585Z,8.50
2023-04-27T14:38:46.523Z,6.35
2023-04-27T14:41:13.424Z,6.30
2023-04-27T14:43:40.239Z,8.07
2023-04-27T14:46:19.910Z,6.50
2023-04-27T14:48:48.399Z,7.00
2023-04-27T14:51:15.776Z,4.80
2023-04-27T14:53:42.823Z,6.35
2023-04-27T14:56:09.755Z,5.70
2023-04-27T14:58:36.643Z,9.18
2023-04-27T15:01:03.919Z,7.93
2023-04-27T15:03:31.399Z,6.03
2023-04-27T15:05:59.286Z,8.23
2023-04-27T15:08:26.193Z,6.18
2023-04-27T15:10:53.200Z,6.20
2023-04-27T15:13:20.059Z,5.45
2023-04-27T15:15:46.937Z,7.70
2023-04-27T15:18:13.877Z,6.03
2023-04-27T15:20:41.507Z,8.93
2023-04-27T15:23:09.366Z,6.32
2023-04-27T15:25:36.192Z,7.27
2023-04-27T15:28:03.055Z,11.20
2023-04-27T15:30:29.922Z,8.57
2023-04-27T15:32:56.841Z,8.90
2023-04-27T15:35:23.798Z,9.77
2023-04-27T15:37:51.658Z,6.88
2023-04-27T15:40:18.663Z,9.32
2023-04-27T15:42:45.461Z,8.23
2023-04-27T15:45:12.312Z,8.03
2023-04-27T15:47:39.243Z,5.88
2023-04-27T15:50:06.680Z,8.50
2023-04-27T15:52:33.514Z,6.75
2023-04-27T15:55:01.318Z,7.50
2023-04-27T15:57:28.184Z,9.23
2023-04-27T15:59:55.081Z,11.45
2023-04-27T16:02:22.090Z,9.10
2023-04-27T16:04:49.772Z,9.40
2023-04-27T16:07:16.661Z,11.60
2023-04-27T16:09:43.590Z,6.13
2023-04-27T16:12:10.535Z,8.25
2023-04-27T16:14:37.412Z,6.60
2023-04-27T16:17:04.323Z,8.05
2023-04-27T16:19:31.264Z,6.55
2023-04-27T16:21:58.251Z,7.23
2023-04-27T16:24:25.970Z,8.07
2023-04-27T16:26:52.824Z,8.55
2023-04-27T16:29:19.750Z,10.18
2023-04-27T16:31:50.192Z,7.85
2023-04-27T16:34:17.118Z,8.13
2023-04-27T16:36:44.041Z,9.50
2023-04-27T16:39:10.989Z,8.70
2023-04-27T16:41:38.009Z,7.72
2023-04-27T16:44:04.939Z,9.52
2023-04-27T16:46:31.849Z,8.48
2023-04-27T16:48:58.790Z,9.43
2023-04-27T16:51:25.676Z,9.13
2023-04-27T16:53:52.539Z,8.43
2023-04-27T16:56:33.439Z,6.70
2023-04-27T16:59:00.340Z,9.70
2023-04-27T17:01:27.363Z,7.20
2023-04-27T17:03:54.594Z,8.20
2023-04-27T17:06:21.652Z,8.93
2023-04-27T17:08:48.533Z,8.63
2023-04-27T17:11:15.425Z,7.68
2023-04-27T17:13:42.275Z,8.00
2023-04-27T17:16:09.189Z,8.55
2023-04-27T17:18:36.097Z,12.50
2023-04-27T17:21:02.986Z,13.20
2023-04-27T17:23:30.777Z,19.75
2023-04-27T17:25:57.639Z,15.32
2023-04-27T17:28:24.562Z,11.55
2023-04-27T17:30:51.437Z,7.32
2023-04-27T17:33:18.334Z,8.32
2023-04-27T17:35:45.307Z,7.70
2023-04-27T17:38:12.209Z,6.90
2023-04-27T17:40:39.265Z,8.10
2023-04-27T17:43:06.217Z,6.70
2023-04-27T17:45:33.092Z,7.97
2023-04-27T17:48:00.092Z,9.77
2023-04-27T17:50:27.694Z,7.90
2023-04-27T17:52:54.700Z,7.30
2023-04-27T17:55:22.333Z,9.38
2023-04-27T17:57:49.274Z,7.00
2023-04-27T18:00:16.470Z,7.38
2023-04-27T18:02:43.488Z,13.73
2023-04-27T18:05:10.530Z,17.77
2023-04-27T18:07:37.921Z,15.95
2023-04-27T18:10:06.433Z,10.63
2023-04-27T18:12:33.833Z,8.57
2023-04-27T18:15:03.800Z,6.38
2023-04-27T18:17:31.932Z,7.22
2023-04-27T18:20:08.121Z,7.57
2023-04-27T18:22:37.496Z,8.55
2023-04-27T18:25:04.722Z,7.17
2023-04-27T18:27:31.683Z,6.50
2023-04-27T18:29:58.693Z,7.40
2023-04-27T18:32:25.774Z,6.53
2023-04-27T18:34:52.678Z,7.50
2023-04-27T18:37:19.600Z,6.35
2023-04-27T18:39:46.454Z,9.05
2023-04-27T18:42:16.983Z,7.30
2023-04-27T18:44:44.324Z,7.05
2023-04-27T18:47:11.218Z,49.50
2023-04-27T18:49:38.099Z,47.13
2023-04-27T18:52:05.033Z,15.07
2023-04-27T18:54:31.883Z,8.23
2023-04-27T18:56:58.821Z,6.45
2023-04-27T18:59:25.709Z,7.20
2023-04-27T19:01:52.811Z,6.25
2023-04-27T19:04:19.920Z,7.07
2023-04-27T19:06:46.936Z,7.00
2023-04-27T19:09:13.864Z,6.32
2023-04-27T19:11:41.243Z,8.90
2023-04-27T19:14:08.099Z,6.00
2023-04-27T19:16:35.154Z,86.82
2023-04-27T19:19:02.168Z,44.30
2023-04-27T19:21:29.020Z,44.10
2023-04-27T19:23:55.985Z,44.60
2023-04-27T19:26:22.978Z,45.78
2023-04-27T19:28:49.857Z,45.20
2023-04-27T19:31:16.905Z,47.93
2023-04-27T19:33:46.951Z,53.65
2023-04-27T19:36:14.133Z,54.27
2023-04-27T19:38:40.975Z,46.38
2023-04-27T19:41:07.829Z,45.30
2023-04-27T19:43:34.805Z,45.00
2023-04-27T19:46:01.954Z,45.13
2023-04-27T19:48:28.860Z,45.72
2023-04-27T19:50:55.760Z,45.70
2023-04-27T19:53:22.727Z,45.65
2023-04-27T19:55:49.557Z,45.30
2023-04-27T19:58:16.534Z,45.72
2023-04-27T20:00:43.433Z,45.20
2023-04-27T20:03:10.435Z,45.60
2023-04-27T20:05:37.867Z,45.50
2023-04-27T20:08:04.914Z,45.70
2023-04-27T20:10:31.769Z,45.40
2023-04-27T20:12:58.641Z,45.67
2023-04-27T20:15:25.545Z,46.70
2023-04-27T20:17:53.284Z,46.30
2023-04-27T20:20:20.295Z,46.10
2023-04-27T20:22:47.186Z,46.08
2023-04-27T20:25:14.102Z,46.70
2023-04-27T20:27:41.203Z,47.20
2023-04-27T20:30:08.985Z,47.60
2023-04-27T20:32:35.926Z,47.28
2023-04-27T20:35:02.800Z,47.47
2023-04-27T20:37:29.699Z,47.23
2023-04-27T20:39:56.560Z,47.85
2023-04-27T20:42:23.492Z,47.78
2023-04-27T20:44:50.460Z,46.92
2023-04-27T20:47:17.343Z,47.27
2023-04-27T20:49:44.231Z,47.35
2023-04-27T20:52:11.288Z,47.53
2023-04-27T20:54:38.441Z,48.15
2023-04-27T20:57:05.867Z,47.30
2023-04-27T20:59:33.150Z,47.30
2023-04-27T21:02:05.609Z,47.70
2023-04-27T21:04:32.634Z,48.65
2023-04-27T21:06:59.514Z,47.60
2023-04-27T21:09:26.778Z,48.05
2023-04-27T21:11:53.652Z,49.47
2023-04-27T21:14:20.512Z,51.63
2023-04-27T21:16:47.460Z,37.97
2023-04-27T21:19:14.431Z,37.57
2023-04-27T21:21:41.573Z,37.88
2023-04-27T21:24:08.642Z,38.03
2023-04-27T21:26:35.688Z,37.88
2023-04-27T21:29:02.576Z,38.30
2023-04-27T21:31:29.482Z,38.67
2023-04-27T21:33:56.417Z,38.67
2023-04-27T21:36:23.344Z,39.78
2023-04-27T21:38:50.236Z,38.85
2023-04-27T21:41:17.165Z,38.40
2023-04-27T21:43:44.019Z,38.30
2023-04-27T21:46:10.953Z,38.15
2023-04-27T21:48:37.922Z,38.30
2023-04-27T21:51:04.970Z,38.50
2023-04-27T21:53:32.012Z,39.58
2023-04-27T21:55:58.887Z,38.78
2023-04-27T21:58:26.244Z,38.57
2023-04-27T22:00:53.108Z,38.60
2023-04-27T22:03:20.103Z,37.10
2023-04-27T22:05:47.195Z,37.60
2023-04-27T22:08:14.062Z,37.15
2023-04-27T22:10:41.433Z,36.95
2023-04-27T22:13:18.882Z,37.47
2023-04-27T22:15:47.169Z,37.67
2023-04-27T22:18:14.794Z,37.50
2023-04-27T22:20:42.400Z,40.40
2023-04-27T22:23:09.704Z,38.03
2023-04-27T22:25:37.130Z,39.22
2023-04-27T22:28:04.074Z,39.53
2023-04-27T22:30:31.779Z,40.20
2023-04-27T22:32:58.869Z,40.30
2023-04-27T22:35:27.623Z,41.20
2023-04-27T22:37:59.672Z,39.53
2023-04-27T22:40:26.811Z,39.35
2023-04-27T22:42:55.131Z,37.60
2023-04-27T22:45:23.426Z,36.72
2023-04-27T22:47:50.369Z,36.70
2023-04-27T22:50:17.536Z,37.58
2023-04-27T22:52:44.455Z,36.22
2023-04-27T22:55:12.493Z,36.88
2023-04-27T22:57:40.414Z,37.60
2023-04-27T23:00:08.008Z,37.10
2023-04-27T23:02:34.972Z,36.20
2023-04-27T23:05:01.953Z,37.80
2023-04-27T23:07:28.789Z,36.00
2023-04-27T23:09:56.563Z,36.53
2023-04-27T23:12:23.414Z,38.10
2023-04-27T23:14:50.306Z,37.35
2023-04-27T23:17:17.184Z,36.25
2023-04-27T23:19:44.035Z,36.58
2023-04-27T23:22:11.147Z,37.38
2023-04-27T23:24:37.986Z,37.30
2023-04-27T23:27:04.876Z,36.58
2023-04-27T23:29:31.858Z,37.33
2023-04-27T23:32:02.701Z,37.30
2023-04-27T23:34:29.647Z,37.60
2023-04-27T23:36:56.508Z,35.83
2023-04-27T23:39:23.567Z,36.47
2023-04-27T23:41:50.547Z,36.70
2023-04-27T23:44:17.679Z,36.70
2023-04-27T23:46:44.754Z,36.10
2023-04-27T23:49:11.606Z,36.17
2023-04-27T23:51:38.523Z,36.22
2023-04-27T23:54:05.467Z,36.00
2023-04-27T23:56:32.366Z,38.05
2023-04-27T23:58:59.255Z,36.40
